Aérodrome :
LOGIN :

S'inscrire | Disclaimer

   EN    FR    IT 

 










Légende :    VFR   VFR Marginal   IFR   IFR Intensif   IFR Très Intensif
Visi : 
Plafond : 
>= 8 km
>= 3000ft
5 à 8 km
1000 à 3000 ft
1500m à 5 km
500 à 1000 ft
800 à 1500m
200 à 500 ft
< 800m
< 200 ft
Symboles :   Orages  Brouillard  Fortes neiges  Fortes précipitations  Vent > 20 kt
SIGMETs :   Divers  Orages  Givrage  Turbulence  Onde Orograph.  Cendres Volcan.







- Altitude de l'aérodrome : 20 ft
- Code IATA : BJA


DAAE - Soummam - Bejaia

DERNIER METAR :
  • 280800Z 05013KT 2500 -RABR FEW005 SCT013 FEW023CB BKN040 14/13 Q1014

METARs EXPIRÉS :
  • 280740Z 05015KT 2000 -RABR FEW006 SCT013 FEW023CB BKN040 14/13 Q1014
  • 280700Z 04017KT 1500 -RA BR FEW003 SCT013 BKN040 14/13 Q1014
  • 280600Z 04016KT 1500 -RA BR FEW003 SCT013 BKN040 15/14 Q1013
  • 280520Z 04014KT 2000 -RA BR FEW003 SCT013 BKN040 15/14 Q1013

TAF TAF DAAE
Valide du 28 à 06h jusqu'au 29 à 06h UTC


280500Z 2806/2906 02010KT 5000 RA FEW010 SCT016 BKN040
TEMPO 2806/2811 22015G25KT 3000 -TSRA FEW023CB
PROB30
TEMPO 2806/2809 2000 BR FEW002
Pas de NOTAMs connus pour ce terrain.
1 SIGMET publié pour la FIR Alger (DAAA) :
 
Orages noyés dans la masse
DAAA SIGMET 2 VALID 280630/281030 DAMM
DAAA ALGIERS FIR ISOL EMBD TS OBS WI N3627 W00116 - N3720 E00046 - N3752 E00358 - N3620 E00314 - N3525 W00055 - N3627 W00116 TOP FL350 MOV NE=



MET'MAP, la Météo Aéronautique d'un coup d'oeil ! - Copyright ORBIFLY Décembre 2007 - Disclaimer

ORBIFLY MET'MAP TEAM :

Programmation & Développement : Alexandra Zaïnal
Conception & Développement : Baudouin d'Aumeries
Co-Programmation & Développement : Marc-Olivier Méhu
Soutien technique & logistique : Manuel Goepfert

Contact : metmap@orbifly.com




SOURCES & CREDITS :

   NOAA